Terminal Aerodrome Forecast
Issued by NWS Mt. Holly, NJ

Home | Current Version | Previous Version | Text Only | Print | Product List | Glossary On
Versions: 1 2 3 4 5 6 7 8 9 10 11 12 13 14 15 16 17 18 19 20 21 22 23
000
FTAK31 PANC 252007 AAA
TAFABE
TAF AMD
PABE 252007Z 2520/2618 18025G35KT 6SM BLSN VCSH SCT005 BKN040
      WS020/21050KT
      TEMPO 2520/2524 5SM -SHSN SCT005 BKN020
     FM260000 19023KT 1SM BR SCT002 OVC005 WS020/22055KT
     FM260900 20015KT 3SM -SHSN SCT008 BKN010=

USA.gov is the U.S. government's official web portal to all federal, state and local government web resources and services.